createdAt,value
2022-10-13T00:00:47.330Z,17.58
2022-10-13T00:03:14.903Z,17.30
2022-10-13T00:05:42.608Z,17.23
2022-10-13T00:08:09.189Z,18.10
2022-10-13T00:10:39.007Z,18.00
2022-10-13T00:13:06.631Z,17.45
2022-10-13T00:15:33.323Z,17.52
2022-10-13T00:17:59.838Z,15.80
2022-10-13T00:20:26.438Z,17.23
2022-10-13T00:22:52.984Z,17.50
2022-10-13T00:25:19.503Z,17.52
2022-10-13T00:27:47.325Z,17.35
2022-10-13T00:30:13.903Z,18.52
2022-10-13T00:32:40.377Z,18.98
2022-10-13T00:35:07.401Z,18.95
2022-10-13T00:37:33.896Z,19.40
2022-10-13T00:40:00.425Z,17.42
2022-10-13T00:42:26.918Z,18.58
2022-10-13T00:45:05.227Z,18.42
2022-10-13T00:47:36.047Z,18.63
2022-10-13T00:50:03.377Z,20.75
2022-10-13T00:52:31.436Z,19.42
2022-10-13T00:54:59.215Z,17.77
2022-10-13T00:57:26.455Z,18.50
2022-10-13T00:59:53.093Z,18.10
2022-10-13T01:02:22.607Z,19.35
2022-10-13T01:04:50.119Z,18.02
2022-10-13T01:07:18.868Z,18.50
2022-10-13T01:09:45.395Z,17.02
2022-10-13T01:12:25.752Z,17.17
2022-10-13T01:14:59.940Z,19.05
2022-10-13T01:17:36.855Z,19.60
2022-10-13T01:20:25.185Z,17.55
2022-10-13T01:23:06.508Z,16.05
2022-10-13T01:25:52.137Z,17.38
2022-10-13T01:28:35.667Z,18.52
2022-10-13T01:31:13.515Z,16.92
2022-10-13T01:33:43.818Z,17.40
2022-10-13T01:36:20.373Z,16.00
2022-10-13T01:38:54.880Z,16.42
2022-10-13T01:41:27.470Z,17.35
2022-10-13T01:44:00.795Z,16.33
2022-10-13T01:46:30.947Z,16.58
2022-10-13T01:49:01.459Z,16.42
2022-10-13T01:51:30.547Z,17.02
2022-10-13T01:53:57.094Z,16.73
2022-10-13T01:56:23.798Z,16.77
2022-10-13T01:58:52.207Z,16.48
2022-10-13T02:01:32.676Z,15.85
2022-10-13T02:04:11.156Z,16.00
2022-10-13T02:06:41.133Z,15.60
2022-10-13T02:09:13.547Z,15.30
2022-10-13T02:11:49.215Z,15.88
2022-10-13T02:14:20.724Z,16.00
2022-10-13T02:16:50.600Z,15.27
2022-10-13T02:19:18.800Z,14.38
2022-10-13T02:21:46.786Z,14.07
2022-10-13T02:24:13.766Z,14.48
2022-10-13T02:26:41.486Z,13.75
2022-10-13T02:29:09.349Z,13.55
2022-10-13T02:31:36.025Z,14.18
2022-10-13T02:34:04.267Z,15.82
2022-10-13T02:36:30.983Z,14.38
2022-10-13T02:38:57.540Z,14.63
2022-10-13T02:41:24.013Z,14.35
2022-10-13T02:43:50.574Z,14.80
2022-10-13T02:46:17.088Z,13.63
2022-10-13T02:48:43.594Z,14.40
2022-10-13T02:51:11.438Z,14.23
2022-10-13T02:53:37.970Z,13.07
2022-10-13T02:56:04.702Z,15.40
2022-10-13T02:58:31.236Z,17.08
2022-10-13T03:01:05.938Z,15.68
2022-10-13T03:03:32.488Z,16.52
2022-10-13T03:05:59.008Z,17.55
2022-10-13T03:08:26.880Z,16.63
2022-10-13T03:10:53.384Z,18.05
2022-10-13T03:13:20.899Z,17.58
2022-10-13T03:15:47.399Z,18.73
2022-10-13T03:18:14.443Z,18.38
2022-10-13T03:20:41.008Z,17.23
2022-10-13T03:23:07.596Z,17.30
2022-10-13T03:25:36.091Z,17.52
2022-10-13T03:28:02.628Z,16.10
2022-10-13T03:30:29.185Z,17.00
2022-10-13T03:32:55.721Z,18.15
2022-10-13T03:35:22.221Z,48.00
2022-10-13T03:37:48.709Z,32.50
2022-10-13T03:40:15.371Z,51.38
2022-10-13T03:42:43.248Z,34.67
2022-10-13T03:45:10.384Z,30.70
2022-10-13T03:47:37.058Z,26.50
2022-10-13T03:50:04.491Z,25.55
2022-10-13T03:52:31.079Z,25.20
2022-10-13T03:54:58.383Z,27.45
2022-10-13T03:57:24.924Z,26.05
2022-10-13T03:59:52.935Z,22.70
2022-10-13T04:02:19.596Z,21.35
2022-10-13T04:04:46.370Z,22.75
2022-10-13T04:07:12.955Z,20.65
2022-10-13T04:09:39.542Z,20.50
2022-10-13T04:12:06.264Z,21.60
2022-10-13T04:14:32.911Z,20.08
2022-10-13T04:17:00.770Z,21.35
2022-10-13T04:19:27.363Z,21.50
2022-10-13T04:21:53.920Z,20.80
2022-10-13T04:24:20.490Z,22.85
2022-10-13T04:26:47.033Z,20.38
2022-10-13T04:29:13.601Z,21.25
2022-10-13T04:31:40.459Z,20.70
2022-10-13T04:34:08.508Z,20.73
2022-10-13T04:36:35.195Z,20.58
2022-10-13T04:39:01.794Z,20.30
2022-10-13T04:41:28.400Z,18.23
2022-10-13T04:43:55.135Z,19.10
2022-10-13T04:46:24.052Z,20.98
2022-10-13T04:48:51.130Z,20.23
2022-10-13T04:51:21.343Z,21.70
2022-10-13T04:53:47.925Z,19.35
2022-10-13T04:56:16.864Z,18.00
2022-10-13T04:58:44.805Z,18.63
2022-10-13T05:01:17.645Z,19.90
2022-10-13T05:03:47.113Z,18.55
2022-10-13T05:06:14.788Z,19.42
2022-10-13T05:08:42.684Z,20.65
2022-10-13T05:11:09.408Z,18.35
2022-10-13T05:13:36.590Z,20.38
2022-10-13T05:16:06.507Z,21.13
2022-10-13T05:18:33.056Z,20.23
2022-10-13T05:21:06.489Z,21.65
2022-10-13T05:23:33.030Z,23.35
2022-10-13T05:26:03.117Z,22.73
2022-10-13T05:28:29.698Z,20.27
2022-10-13T05:30:56.277Z,20.83
2022-10-13T05:33:22.793Z,22.65
2022-10-13T05:35:49.350Z,21.70
2022-10-13T05:38:15.877Z,21.27
2022-10-13T05:40:42.441Z,19.95
2022-10-13T05:43:10.306Z,19.15
2022-10-13T05:45:36.874Z,21.58
2022-10-13T05:48:03.684Z,23.85
2022-10-13T05:50:30.262Z,24.50
2022-10-13T05:52:57.135Z,24.30
2022-10-13T05:55:23.793Z,23.38
2022-10-13T05:57:52.191Z,22.63
2022-10-13T06:00:20.467Z,22.15
2022-10-13T06:02:51.375Z,24.15
2022-10-13T06:05:19.823Z,22.83
2022-10-13T06:07:47.283Z,23.90
2022-10-13T06:10:14.586Z,22.52
2022-10-13T06:12:41.363Z,21.50
2022-10-13T06:15:09.135Z,24.75
2022-10-13T06:17:37.306Z,23.90
2022-10-13T06:20:04.498Z,24.15
2022-10-13T06:22:31.040Z,25.52
2022-10-13T06:24:57.597Z,24.48
2022-10-13T06:27:24.202Z,24.90
2022-10-13T06:29:50.751Z,24.38
2022-10-13T06:32:17.610Z,25.10
2022-10-13T06:34:45.792Z,24.58
2022-10-13T06:37:12.340Z,23.92
2022-10-13T06:39:38.884Z,23.90
2022-10-13T06:42:05.502Z,23.50
2022-10-13T06:44:32.364Z,24.58
2022-10-13T06:46:58.880Z,24.15
2022-10-13T06:49:25.519Z,24.90
2022-10-13T06:51:53.380Z,26.83
2022-10-13T06:54:19.958Z,23.92
2022-10-13T06:56:46.500Z,26.70
2022-10-13T06:59:13.275Z,24.13
2022-10-13T07:01:41.660Z,24.50
2022-10-13T07:04:08.451Z,24.48
2022-10-13T07:06:35.198Z,23.92
2022-10-13T07:09:04.669Z,24.42
2022-10-13T07:11:31.258Z,22.58
2022-10-13T07:13:57.903Z,24.73
2022-10-13T07:16:24.504Z,23.45
2022-10-13T07:18:51.241Z,23.58
2022-10-13T07:21:17.969Z,24.88
2022-10-13T07:23:44.834Z,23.60
2022-10-13T07:26:14.993Z,23.38
2022-10-13T07:28:43.147Z,22.88
2022-10-13T07:31:11.082Z,23.38
2022-10-13T07:33:38.294Z,21.58
2022-10-13T07:36:05.254Z,22.00
2022-10-13T07:38:31.916Z,21.85
2022-10-13T07:41:00.585Z,22.75
2022-10-13T07:43:28.565Z,21.73
2022-10-13T07:45:55.240Z,20.02
2022-10-13T07:50:49.238Z,22.23
2022-10-13T07:53:15.764Z,21.15
2022-10-13T07:55:42.314Z,20.83
2022-10-13T07:58:09.024Z,22.30
2022-10-13T08:00:36.971Z,25.67
2022-10-13T08:03:03.614Z,21.63
2022-10-13T08:05:30.164Z,20.38
2022-10-13T08:07:58.468Z,20.60
2022-10-13T08:10:25.645Z,19.52
2022-10-13T08:12:52.176Z,20.70
2022-10-13T08:15:18.936Z,23.08
2022-10-13T08:17:46.945Z,21.52
2022-10-13T08:20:13.572Z,20.85
2022-10-13T08:22:40.100Z,21.00
2022-10-13T08:25:07.520Z,19.67
2022-10-13T08:27:50.312Z,18.48
2022-10-13T08:30:18.054Z,18.83
2022-10-13T08:32:44.646Z,19.42
2022-10-13T08:35:13.287Z,18.13
2022-10-13T08:37:39.840Z,21.52
2022-10-13T08:40:07.783Z,19.17
2022-10-13T08:42:34.683Z,19.83
2022-10-13T08:45:36.152Z,19.20
2022-10-13T08:47:54.729Z,19.33
2022-10-13T08:50:26.900Z,19.80
2022-10-13T08:52:57.159Z,20.25
2022-10-13T08:55:31.537Z,19.80
2022-10-13T08:57:58.527Z,21.00
2022-10-13T09:00:25.103Z,23.70
2022-10-13T09:02:52.973Z,21.85
2022-10-13T09:05:37.250Z,22.25
2022-10-13T09:08:14.814Z,21.83
2022-10-13T09:10:48.776Z,22.00
2022-10-13T09:13:15.322Z,23.33
2022-10-13T09:15:46.517Z,21.40
2022-10-13T09:18:14.319Z,22.45
2022-10-13T09:20:42.729Z,23.65
2022-10-13T09:23:18.875Z,23.15
2022-10-13T09:25:48.101Z,22.30
2022-10-13T09:28:18.603Z,22.00
2022-10-13T09:30:46.811Z,21.85
2022-10-13T09:33:22.002Z,22.50
2022-10-13T09:36:06.833Z,23.40
2022-10-13T09:38:33.814Z,22.08
2022-10-13T09:41:02.819Z,21.63
2022-10-13T09:43:31.973Z,21.60
2022-10-13T09:46:00.858Z,22.45
2022-10-13T09:48:29.793Z,21.60
2022-10-13T09:50:58.475Z,20.75
2022-10-13T09:53:30.218Z,21.20
2022-10-13T09:56:17.451Z,22.05
2022-10-13T09:58:49.753Z,20.23
2022-10-13T10:01:21.782Z,21.65
2022-10-13T10:03:49.408Z,21.52
2022-10-13T10:06:17.874Z,21.67
2022-10-13T10:09:05.253Z,20.73
2022-10-13T10:11:37.384Z,20.10
2022-10-13T10:16:42.580Z,20.38
2022-10-13T10:19:18.908Z,21.00
2022-10-13T10:21:54.307Z,21.73
2022-10-13T10:24:31.944Z,21.67
2022-10-13T10:27:01.578Z,21.65
2022-10-13T10:29:40.280Z,22.20
2022-10-13T10:32:27.717Z,21.70
2022-10-13T10:35:00.109Z,22.60
2022-10-13T10:37:45.737Z,22.35
2022-10-13T10:40:26.956Z,22.42
2022-10-13T10:43:09.717Z,21.57
2022-10-13T10:45:39.373Z,23.17
2022-10-13T10:48:16.175Z,23.55
2022-10-13T10:50:42.887Z,23.55
2022-10-13T10:53:18.627Z,21.30
2022-10-13T10:55:52.175Z,21.70
2022-10-13T10:58:26.868Z,21.52
2022-10-13T11:01:02.516Z,22.02
2022-10-13T11:03:39.891Z,21.60
2022-10-13T11:06:22.729Z,18.63
2022-10-13T11:08:50.727Z,19.75
2022-10-13T11:11:36.434Z,19.58
2022-10-13T11:14:30.549Z,19.92
2022-10-13T11:17:15.840Z,18.80
2022-10-13T11:19:42.454Z,21.08
2022-10-13T11:22:17.938Z,19.67
2022-10-13T11:24:55.128Z,20.63
2022-10-13T11:27:40.380Z,20.63
2022-10-13T11:30:39.591Z,18.85
2022-10-13T11:33:33.066Z,20.80
2022-10-13T11:36:36.711Z,22.48
2022-10-13T11:39:19.124Z,20.45
2022-10-13T11:41:54.828Z,19.10
2022-10-13T11:44:30.589Z,18.45
2022-10-13T11:47:08.761Z,19.02
2022-10-13T11:49:53.100Z,17.90
2022-10-13T11:52:53.948Z,18.23
2022-10-13T11:55:33.969Z,18.92
2022-10-13T11:58:14.307Z,19.20
2022-10-13T12:00:51.058Z,19.50
2022-10-13T12:03:22.547Z,19.70
2022-10-13T12:05:51.315Z,19.75
2022-10-13T12:08:19.454Z,20.35
2022-10-13T12:10:46.292Z,18.98
2022-10-13T12:13:21.846Z,18.05
2022-10-13T12:15:48.538Z,18.52
2022-10-13T12:18:24.168Z,19.48
2022-10-13T12:20:56.975Z,19.58
2022-10-13T12:23:23.822Z,18.50
2022-10-13T12:25:52.776Z,19.20
2022-10-13T12:28:19.902Z,18.95
2022-10-13T12:30:52.817Z,17.52
2022-10-13T12:33:25.851Z,18.73
2022-10-13T12:35:52.494Z,17.27
2022-10-13T12:38:22.295Z,18.15
2022-10-13T12:40:50.947Z,18.40
2022-10-13T12:43:20.213Z,18.55
2022-10-13T12:45:46.990Z,18.08
2022-10-13T12:48:31.234Z,17.35
2022-10-13T12:51:18.377Z,16.88
2022-10-13T12:53:47.855Z,17.17
2022-10-13T12:56:27.372Z,16.98
2022-10-13T12:58:54.626Z,16.13
2022-10-13T13:01:31.825Z,17.50
2022-10-13T13:04:01.652Z,17.02
2022-10-13T13:06:37.098Z,18.20
2022-10-13T13:09:30.176Z,16.45
2022-10-13T13:12:05.626Z,16.73
2022-10-13T13:14:36.447Z,16.60
2022-10-13T13:17:05.870Z,19.13
2022-10-13T13:19:33.027Z,17.27
2022-10-13T13:21:59.668Z,16.95
2022-10-13T13:24:35.868Z,17.92
2022-10-13T13:27:18.405Z,17.20
2022-10-13T13:29:45.956Z,17.08
2022-10-13T13:32:14.290Z,16.25
2022-10-13T13:34:41.075Z,17.50
2022-10-13T13:37:14.006Z,17.48
2022-10-13T13:39:40.546Z,19.30
2022-10-13T13:42:13.981Z,18.50
2022-10-13T13:44:42.020Z,18.50
2022-10-13T13:47:17.226Z,18.48
2022-10-13T13:49:44.201Z,16.58
2022-10-13T13:52:10.752Z,17.85
2022-10-13T13:54:37.394Z,17.95
2022-10-13T13:57:04.270Z,19.10
2022-10-13T13:59:30.910Z,29.00
2022-10-13T14:01:59.006Z,17.65
2022-10-13T14:04:25.609Z,19.02
2022-10-13T14:06:52.264Z,17.77
2022-10-13T14:09:18.864Z,16.02
2022-10-13T14:11:45.439Z,16.05
2022-10-13T14:14:12.077Z,17.65
2022-10-13T14:16:38.672Z,16.70
2022-10-13T14:19:06.647Z,14.85
2022-10-13T14:21:33.196Z,15.40
2022-10-13T14:23:59.772Z,15.73
2022-10-13T14:26:26.398Z,20.70
2022-10-13T14:28:53.012Z,16.65
2022-10-13T14:31:19.578Z,15.60
2022-10-13T14:33:48.703Z,16.02
2022-10-13T14:36:18.759Z,15.93
2022-10-13T14:38:45.319Z,15.68
2022-10-13T14:41:11.872Z,14.82
2022-10-13T14:43:38.420Z,15.48
2022-10-13T14:46:06.268Z,14.93
2022-10-13T14:48:33.645Z,14.07
2022-10-13T14:51:03.925Z,13.50
2022-10-13T14:53:34.386Z,14.98
2022-10-13T14:56:00.941Z,13.32
2022-10-13T14:58:27.574Z,13.63
2022-10-13T15:00:54.151Z,13.68
2022-10-13T15:03:20.759Z,13.43
2022-10-13T15:05:47.383Z,12.00
2022-10-13T15:08:13.929Z,15.57
2022-10-13T15:10:41.823Z,13.70
2022-10-13T15:13:08.353Z,14.32
2022-10-13T15:15:34.911Z,14.80
2022-10-13T15:18:01.468Z,16.95
2022-10-13T15:20:28.007Z,14.25
2022-10-13T15:22:54.574Z,13.20
2022-10-13T15:25:21.146Z,14.75
2022-10-13T15:27:49.065Z,13.57
2022-10-13T15:30:15.739Z,13.75
2022-10-13T15:32:42.303Z,15.00
2022-10-13T15:35:09.198Z,15.20
2022-10-13T15:37:35.746Z,15.23
2022-10-13T15:40:02.353Z,14.27
2022-10-13T15:42:28.883Z,13.80
2022-10-13T15:45:09.383Z,15.32
2022-10-13T15:47:36.852Z,15.95
2022-10-13T15:50:04.126Z,14.73
2022-10-13T15:52:34.642Z,14.65
2022-10-13T15:55:01.672Z,14.73
2022-10-13T15:57:28.359Z,14.07
2022-10-13T15:59:56.248Z,14.25
2022-10-13T16:02:23.196Z,14.43
2022-10-13T16:04:50.125Z,15.02
2022-10-13T16:07:16.683Z,14.30
2022-10-13T16:09:43.239Z,13.70
2022-10-13T16:12:09.808Z,14.13
2022-10-13T16:14:36.374Z,12.52
2022-10-13T16:17:04.299Z,12.10
2022-10-13T16:19:30.862Z,9.93
2022-10-13T16:21:57.446Z,9.93
2022-10-13T16:24:24.119Z,9.93
2022-10-13T16:26:50.651Z,10.70
2022-10-13T16:29:17.220Z,9.82
2022-10-13T16:31:43.760Z,9.57
2022-10-13T16:34:11.877Z,9.98
2022-10-13T16:36:38.431Z,11.07
2022-10-13T16:39:05.008Z,11.75
2022-10-13T16:41:31.567Z,10.40
2022-10-13T16:43:58.142Z,11.23
2022-10-13T16:46:24.703Z,10.27
2022-10-13T16:48:51.279Z,9.65
2022-10-13T16:51:21.591Z,11.18
2022-10-13T16:53:48.351Z,9.55
2022-10-13T16:56:15.362Z,9.50
2022-10-13T16:58:41.946Z,10.23
2022-10-13T17:01:09.762Z,9.95
2022-10-13T17:03:36.769Z,9.95
2022-10-13T17:06:03.788Z,9.95
2022-10-13T17:08:31.759Z,11.27
2022-10-13T17:10:59.653Z,8.70
2022-10-13T17:13:26.218Z,12.10
2022-10-13T17:15:54.192Z,10.52
2022-10-13T17:18:21.199Z,9.18
2022-10-13T17:20:51.729Z,10.18
2022-10-13T17:23:18.335Z,11.32
2022-10-13T17:25:46.319Z,10.77
2022-10-13T17:28:13.067Z,11.63
2022-10-13T17:30:39.711Z,10.00
2022-10-13T17:33:06.406Z,9.15
2022-10-13T17:35:33.205Z,9.32
2022-10-13T17:37:59.765Z,10.43
2022-10-13T17:40:26.500Z,9.90
2022-10-13T17:42:54.423Z,9.20
2022-10-13T17:45:20.997Z,9.50
2022-10-13T17:47:48.239Z,8.15
2022-10-13T17:50:14.979Z,9.25
2022-10-13T17:52:41.546Z,8.40
2022-10-13T17:55:08.983Z,9.70
2022-10-13T17:57:35.546Z,9.60
2022-10-13T18:00:04.916Z,9.40
2022-10-13T18:02:31.454Z,9.25
2022-10-13T18:04:58.025Z,8.93
2022-10-13T18:07:24.587Z,9.52
2022-10-13T18:09:51.300Z,9.50
2022-10-13T18:12:17.883Z,8.85
2022-10-13T18:14:44.670Z,8.85
2022-10-13T18:17:12.612Z,9.15
2022-10-13T18:19:40.415Z,8.45
2022-10-13T18:22:07.295Z,8.95
2022-10-13T18:24:33.875Z,8.82
2022-10-13T18:27:00.433Z,8.77
2022-10-13T18:29:27.072Z,8.20
2022-10-13T18:31:55.057Z,9.25
2022-10-13T18:34:23.003Z,9.40
2022-10-13T18:36:51.068Z,8.48
2022-10-13T18:39:19.207Z,9.10
2022-10-13T18:41:46.876Z,8.60
2022-10-13T18:44:13.987Z,8.20
2022-10-13T18:46:40.832Z,8.93
2022-10-13T18:49:11.134Z,8.52
2022-10-13T18:51:39.195Z,8.68
2022-10-13T18:54:06.320Z,8.60
2022-10-13T18:56:34.019Z,9.73
2022-10-13T18:59:01.827Z,9.25
2022-10-13T19:01:30.035Z,8.82
2022-10-13T19:03:57.364Z,8.35
2022-10-13T19:06:26.211Z,9.10
2022-10-13T19:08:56.051Z,9.48
2022-10-13T19:11:24.071Z,8.75
2022-10-13T19:13:51.278Z,8.30
2022-10-13T19:16:19.949Z,9.02
2022-10-13T19:18:47.105Z,9.50
2022-10-13T19:21:14.040Z,9.07
2022-10-13T19:23:40.746Z,9.20
2022-10-13T19:26:14.766Z,10.50
2022-10-13T19:28:42.209Z,8.60
2022-10-13T19:31:09.357Z,8.82
2022-10-13T19:33:38.658Z,9.05
2022-10-13T19:36:09.501Z,9.48
2022-10-13T19:38:36.933Z,9.00
2022-10-13T19:41:06.593Z,8.75
2022-10-13T19:43:34.591Z,9.25
2022-10-13T19:46:01.148Z,8.70
2022-10-13T19:48:27.781Z,8.85
2022-10-13T19:50:54.427Z,9.40
2022-10-13T19:53:21.001Z,8.80
2022-10-13T19:55:48.330Z,10.00
2022-10-13T19:58:15.842Z,9.35
2022-10-13T20:00:44.963Z,9.88
2022-10-13T20:03:12.229Z,8.50
2022-10-13T20:05:39.607Z,9.15
2022-10-13T20:08:06.782Z,9.80
2022-10-13T20:10:33.822Z,9.50
2022-10-13T20:13:00.816Z,9.25
2022-10-13T20:15:27.347Z,8.93
2022-10-13T20:17:55.286Z,10.10
2022-10-13T20:20:22.597Z,9.70
2022-10-13T20:22:49.230Z,9.73
2022-10-13T20:25:15.758Z,10.45
2022-10-13T20:27:42.346Z,9.77
2022-10-13T20:30:09.913Z,9.65
2022-10-13T20:32:36.530Z,9.95
2022-10-13T20:35:05.533Z,11.32
2022-10-13T20:37:32.910Z,10.13
2022-10-13T20:39:59.440Z,10.18
2022-10-13T20:42:25.984Z,9.75
2022-10-13T20:44:52.583Z,9.75
2022-10-13T20:47:19.524Z,10.60
2022-10-13T20:49:46.228Z,11.45
2022-10-13T20:52:14.158Z,10.73
2022-10-13T20:54:40.680Z,10.95
2022-10-13T20:57:07.301Z,11.75
2022-10-13T20:59:33.863Z,11.48
2022-10-13T21:02:00.428Z,11.35
2022-10-13T21:04:27.028Z,10.50
2022-10-13T21:06:53.558Z,12.23
2022-10-13T21:09:21.471Z,15.18
2022-10-13T21:11:48.033Z,14.05
2022-10-13T21:14:14.579Z,17.02
2022-10-13T21:16:41.137Z,18.35
2022-10-13T21:19:07.959Z,16.52
2022-10-13T21:21:34.707Z,12.98
2022-10-13T21:24:04.131Z,11.60
2022-10-13T21:26:32.752Z,10.77
2022-10-13T21:29:00.766Z,10.93
2022-10-13T21:31:28.541Z,10.65
2022-10-13T21:33:55.646Z,10.40
2022-10-13T21:36:23.816Z,9.63
2022-10-13T21:38:52.725Z,10.40
2022-10-13T21:41:19.360Z,12.43
2022-10-13T21:43:47.444Z,13.63
2022-10-13T21:46:16.738Z,15.02
2022-10-13T21:48:43.785Z,22.67
2022-10-13T21:51:12.722Z,19.05
2022-10-13T21:53:39.302Z,19.48
2022-10-13T21:56:06.788Z,19.42
2022-10-13T21:58:33.428Z,18.65
2022-10-13T22:01:01.821Z,20.48
2022-10-13T22:03:28.465Z,21.60
2022-10-13T22:05:55.068Z,21.63
2022-10-13T22:08:32.827Z,20.90
2022-10-13T22:11:05.036Z,21.33
2022-10-13T22:13:32.052Z,20.75
2022-10-13T22:16:03.647Z,23.52
2022-10-13T22:18:30.320Z,19.90
2022-10-13T22:21:00.785Z,22.60
2022-10-13T22:23:27.364Z,19.80
2022-10-13T22:25:53.889Z,21.13
2022-10-13T22:28:20.866Z,21.73
2022-10-13T22:30:47.937Z,21.65
2022-10-13T22:33:15.915Z,19.10
2022-10-13T22:35:42.474Z,20.90
2022-10-13T22:38:09.015Z,20.83
2022-10-13T22:40:35.749Z,20.27
2022-10-13T22:43:02.315Z,18.50
2022-10-13T22:45:28.875Z,18.58
2022-10-13T22:47:55.427Z,17.77
2022-10-13T22:50:23.535Z,17.70
2022-10-13T22:52:50.363Z,18.60
2022-10-13T22:55:17.083Z,17.80
2022-10-13T22:57:43.633Z,18.02
2022-10-13T23:00:11.105Z,18.75
2022-10-13T23:02:37.674Z,17.38
2022-10-13T23:05:04.868Z,17.23
2022-10-13T23:07:32.784Z,16.08
2022-10-13T23:09:59.343Z,16.73
2022-10-13T23:12:25.875Z,17.10
2022-10-13T23:14:52.433Z,17.33
2022-10-13T23:17:19.230Z,16.42
2022-10-13T23:19:46.016Z,18.17
2022-10-13T23:22:12.549Z,18.75
2022-10-13T23:24:40.447Z,18.92
2022-10-13T23:27:06.983Z,19.60
2022-10-13T23:29:33.551Z,21.25
2022-10-13T23:32:00.090Z,21.80
2022-10-13T23:34:26.640Z,20.50
2022-10-13T23:36:53.170Z,20.17
2022-10-13T23:39:19.774Z,19.77
2022-10-13T23:41:47.733Z,21.95
2022-10-13T23:44:14.274Z,20.38
2022-10-13T23:46:40.835Z,19.67
2022-10-13T23:49:08.600Z,21.40
2022-10-13T23:51:35.129Z,21.92
2022-10-13T23:54:01.703Z,20.25
2022-10-13T23:56:28.244Z,21.70
2022-10-13T23:58:56.153Z,20.00
